Time;durP1;ratioP1;P1;durP2;ratioP2;P2;SDS_P1;SDS_P2;PMS_P1;PMS_P2;Temp;Humidity;BMP_temperature;BMP_pressure;BME280_temperature;BME280_humidity;BME280_pressure;Samples;Min_cycle;Max_cycle;Signal;HPM_P1;HPM_P2
2023/01/01 00:00:43;;;;;;;19.40;5.50;;;;;;;;;;5150245;27;20080;-68
2023/01/01 00:03:08;;;;;;;19.23;5.05;;;;;;;;;;5151731;27;20485;-70
2023/01/01 00:05:37;;;;;;;15.70;4.70;;;;;;;;;;5151686;27;20025;-67
2023/01/01 00:08:03;;;;;;;18.38;4.47;;;;;;;;;;5151957;27;20390;-68
2023/01/01 00:10:28;;;;;;;17.35;4.70;;;;;;;;;;5151631;27;20031;-71
2023/01/01 00:12:55;;;;;;;16.00;3.97;;;;;;;;;;5152006;27;20029;-69
2023/01/01 00:15:21;;;;;;;21.73;4.32;;;;;;;;;;5152029;27;20046;-69
2023/01/01 00:17:46;;;;;;;26.25;4.28;;;;;;;;;;5151765;27;20043;-70
2023/01/01 00:20:12;;;;;;;20.77;4.65;;;;;;;;;;5151827;27;20018;-69
2023/01/01 00:22:37;;;;;;;17.63;4.43;;;;;;;;;;5151617;27;20023;-68
2023/01/01 00:25:04;;;;;;;17.58;4.32;;;;;;;;;;5151723;27;20026;-68
2023/01/01 00:27:29;;;;;;;24.20;4.88;;;;;;;;;;5151877;27;20027;-68
2023/01/01 00:29:55;;;;;;;18.55;4.20;;;;;;;;;;5151476;27;20075;-69
2023/01/01 00:32:20;;;;;;;16.98;4.40;;;;;;;;;;5151517;27;20023;-68
2023/01/01 00:34:46;;;;;;;20.63;3.80;;;;;;;;;;5152443;27;20019;-68
2023/01/01 00:37:11;;;;;;;18.13;4.20;;;;;;;;;;5155888;27;20101;-69
2023/01/01 00:39:37;;;;;;;17.55;4.30;;;;;;;;;;5155536;27;20377;-70
2023/01/01 00:42:02;;;;;;;23.83;4.13;;;;;;;;;;5155647;27;20034;-70
2023/01/01 00:44:27;;;;;;;18.27;3.75;;;;;;;;;;5155356;27;20042;-68
2023/01/01 00:46:53;;;;;;;19.67;4.32;;;;;;;;;;5155465;27;20061;-69
2023/01/01 00:49:18;;;;;;;19.83;3.97;;;;;;;;;;5155167;27;20102;-69
2023/01/01 00:51:44;;;;;;;18.45;3.80;;;;;;;;;;5155525;27;20031;-69
2023/01/01 00:54:09;;;;;;;19.52;4.60;;;;;;;;;;5155616;27;20029;-68
2023/01/01 00:56:34;;;;;;;18.90;4.18;;;;;;;;;;5155463;27;20022;-69
2023/01/01 00:59:00;;;;;;;17.67;4.22;;;;;;;;;;5154025;27;20015;-68
2023/01/01 01:01:25;;;;;;;17.05;3.83;;;;;;;;;;5155082;27;20371;-69
2023/01/01 01:03:51;;;;;;;20.85;4.13;;;;;;;;;;5154939;27;20026;-69
2023/01/01 01:06:17;;;;;;;23.45;4.65;;;;;;;;;;5155197;27;20387;-68
2023/01/01 01:08:45;;;;;;;17.90;4.47;;;;;;;;;;5155175;27;20034;-68
2023/01/01 01:11:15;;;;;;;19.70;4.45;;;;;;;;;;5154799;27;20110;-68
2023/01/01 01:13:41;;;;;;;18.98;4.15;;;;;;;;;;5155273;27;20038;-70
2023/01/01 01:16:27;;;;;;;17.33;4.10;;;;;;;;;;5155165;27;20035;-69
2023/01/01 01:18:56;;;;;;;19.92;4.30;;;;;;;;;;5154784;27;20035;-69
2023/01/01 01:21:22;;;;;;;23.38;4.30;;;;;;;;;;5154677;27;20026;-72
2023/01/01 01:23:49;;;;;;;15.90;4.10;;;;;;;;;;5154780;27;20079;-72
2023/01/01 01:26:18;;;;;;;19.90;3.80;;;;;;;;;;5154647;27;20490;-70
2023/01/01 01:28:44;;;;;;;17.55;4.10;;;;;;;;;;5154783;27;20101;-69
2023/01/01 01:31:10;;;;;;;21.33;4.40;;;;;;;;;;5154237;27;20113;-68
2023/01/01 01:33:35;;;;;;;19.80;3.97;;;;;;;;;;5154493;27;20057;-69
2023/01/01 01:36:02;;;;;;;21.50;3.80;;;;;;;;;;5154590;27;20015;-69
2023/01/01 01:38:27;;;;;;;14.40;3.85;;;;;;;;;;5154591;27;20023;-69
2023/01/01 01:40:53;;;;;;;25.45;4.22;;;;;;;;;;5154125;27;20428;-69
2023/01/01 01:43:22;;;;;;;25.42;4.10;;;;;;;;;;5154120;27;20043;-68
2023/01/01 01:45:48;;;;;;;16.83;4.03;;;;;;;;;;5154253;27;20015;-70
2023/01/01 01:48:13;;;;;;;19.48;4.32;;;;;;;;;;5153639;27;20550;-69
2023/01/01 01:50:45;;;;;;;21.50;3.88;;;;;;;;;;5152640;27;20034;-69
2023/01/01 01:53:19;;;;;;;17.77;3.92;;;;;;;;;;5154422;27;20034;-70
2023/01/01 01:55:59;;;;;;;25.00;4.03;;;;;;;;;;5154348;27;20494;-68
2023/01/01 01:58:26;;;;;;;18.02;4.88;;;;;;;;;;5154318;27;20030;-69
2023/01/01 02:00:53;;;;;;;21.13;4.47;;;;;;;;;;5153817;27;20034;-69
2023/01/01 02:03:26;;;;;;;16.30;4.38;;;;;;;;;;5153963;27;20027;-69
2023/01/01 02:05:52;;;;;;;35.22;4.68;;;;;;;;;;5154274;27;20023;-68
2023/01/01 02:08:20;;;;;;;21.50;4.50;;;;;;;;;;5153954;27;20394;-69
2023/01/01 02:10:45;;;;;;;19.95;3.90;;;;;;;;;;5153801;27;20109;-67
2023/01/01 02:13:11;;;;;;;20.45;4.18;;;;;;;;;;5154130;27;20495;-69
2023/01/01 02:16:08;;;;;;;22.70;4.30;;;;;;;;;;5153862;27;20033;-67
2023/01/01 02:18:58;;;;;;;24.88;4.07;;;;;;;;;;5152977;27;20436;-68
2023/01/01 02:21:26;;;;;;;21.63;4.35;;;;;;;;;;5153466;27;20097;-68
2023/01/01 02:24:08;;;;;;;16.05;4.22;;;;;;;;;;5153617;27;20603;-68
2023/01/01 02:26:43;;;;;;;22.73;4.63;;;;;;;;;;5153839;27;20075;-68
2023/01/01 02:29:29;;;;;;;18.33;4.77;;;;;;;;;;5153456;27;20044;-70
2023/01/01 02:32:11;;;;;;;22.90;4.65;;;;;;;;;;5153271;27;20142;-69
2023/01/01 02:34:46;;;;;;;23.52;5.70;;;;;;;;;;5153474;27;20037;-69
2023/01/01 02:37:15;;;;;;;22.05;4.80;;;;;;;;;;5153347;27;20037;-68
2023/01/01 02:39:55;;;;;;;23.58;4.90;;;;;;;;;;5153309;27;20022;-68
2023/01/01 02:42:26;;;;;;;24.95;5.00;;;;;;;;;;5153232;27;20039;-68
2023/01/01 02:44:53;;;;;;;;;;;;;;;;;;5153525;27;20494;-66
2023/01/01 02:47:19;;;;;;;20.83;4.60;;;;;;;;;;5153261;27;20017;-68
2023/01/01 02:49:56;;;;;;;17.48;4.63;;;;;;;;;;5153073;27;20023;-69
2023/01/01 02:52:51;;;;;;;22.70;4.35;;;;;;;;;;5153230;27;20046;-69
2023/01/01 02:55:36;;;;;;;24.15;4.50;;;;;;;;;;5151795;27;20105;-68
2023/01/01 03:01:53;;;;;;;25.13;5.03;;;;;;;;;;5152526;27;20546;-69
2023/01/01 03:04:30;;;;;;;20.23;3.83;;;;;;;;;;5141197;27;20681;-68
2023/01/01 03:07:25;;;;;;;23.13;4.25;;;;;;;;;;5153027;27;20041;-68
2023/01/01 03:10:04;;;;;;;25.45;5.05;;;;;;;;;;5152966;27;20027;-68
2023/01/01 03:12:42;;;;;;;19.58;4.25;;;;;;;;;;5152743;27;20442;-68
2023/01/01 03:15:23;;;;;;;24.27;4.65;;;;;;;;;;5152865;27;20029;-69
2023/01/01 03:17:56;;;;;;;20.50;4.55;;;;;;;;;;5152444;27;20034;-68
2023/01/01 03:20:27;;;;;;;18.08;4.50;;;;;;;;;;5152229;27;20038;-69
2023/01/01 03:22:56;;;;;;;23.10;4.13;;;;;;;;;;5152536;27;20022;-68
2023/01/01 03:25:30;;;;;;;23.65;4.50;;;;;;;;;;5152578;27;20500;-67
2023/01/01 03:28:02;;;;;;;20.88;3.97;;;;;;;;;;5152589;27;20030;-67
2023/01/01 03:30:29;;;;;;;16.08;4.15;;;;;;;;;;5152177;27;20027;-68
2023/01/01 03:32:59;;;;;;;17.17;3.92;;;;;;;;;;5152223;27;20106;-68
2023/01/01 03:35:39;;;;;;;20.48;4.20;;;;;;;;;;5152413;27;20023;-70
2023/01/01 03:38:12;;;;;;;20.52;4.28;;;;;;;;;;5152373;27;20540;-68
2023/01/01 03:40:38;;;;;;;24.27;5.07;;;;;;;;;;5152023;27;20058;-70
2023/01/01 03:43:31;;;;;;;17.58;3.67;;;;;;;;;;5150550;27;20501;-69
2023/01/01 03:45:58;;;;;;;20.77;4.15;;;;;;;;;;5152205;27;20033;-69
2023/01/01 03:48:23;;;;;;;15.07;3.65;;;;;;;;;;5152153;27;20105;-68
2023/01/01 03:51:08;;;;;;;25.17;4.25;;;;;;;;;;5151987;27;20105;-69
2023/01/01 03:53:42;;;;;;;17.58;4.65;;;;;;;;;;5152100;27;20437;-68
2023/01/01 03:56:44;;;;;;;20.35;4.28;;;;;;;;;;5152191;27;20476;-69
2023/01/01 03:59:30;;;;;;;18.10;4.13;;;;;;;;;;5143818;27;20037;-68
2023/01/01 04:01:57;;;;;;;19.00;4.43;;;;;;;;;;5151674;27;20405;-68
2023/01/01 04:04:25;;;;;;;22.52;4.15;;;;;;;;;;5151747;27;20031;-69
2023/01/01 04:06:51;;;;;;;18.77;4.18;;;;;;;;;;5152071;27;20023;-69
2023/01/01 04:09:29;;;;;;;20.27;4.22;;;;;;;;;;5152008;27;20019;-68
2023/01/01 04:12:06;;;;;;;17.85;4.18;;;;;;;;;;5156234;27;20109;-68
2023/01/01 04:14:39;;;;;;;22.67;4.50;;;;;;;;;;5156218;27;20039;-68
2023/01/01 04:17:06;;;;;;;20.40;4.15;;;;;;;;;;5156310;27;20082;-68
2023/01/01 04:19:32;;;;;;;17.48;4.10;;;;;;;;;;5155818;27;20071;-68
2023/01/01 04:21:58;;;;;;;27.35;4.70;;;;;;;;;;5155793;27;20018;-68
2023/01/01 04:24:23;;;;;;;16.88;3.83;;;;;;;;;;5154753;27;20022;-70
2023/01/01 04:26:50;;;;;;;21.45;4.30;;;;;;;;;;5156034;27;20055;-69
2023/01/01 04:29:16;;;;;;;17.30;4.90;;;;;;;;;;5155874;27;20431;-68
2023/01/01 04:31:42;;;;;;;22.58;4.72;;;;;;;;;;5155769;27;20056;-68
2023/01/01 04:34:08;;;;;;;23.23;4.28;;;;;;;;;;5155764;27;20393;-69
2023/01/01 04:36:34;;;;;;;23.63;4.18;;;;;;;;;;5155792;27;20034;-68
2023/01/01 04:38:59;;;;;;;13.43;4.05;;;;;;;;;;5155737;27;20027;-69
2023/01/01 04:41:24;;;;;;;18.10;4.28;;;;;;;;;;5155359;27;20526;-67
2023/01/01 04:43:50;;;;;;;22.50;4.80;;;;;;;;;;5155438;27;20398;-68
2023/01/01 04:46:17;;;;;;;22.92;4.32;;;;;;;;;;5155598;27;20031;-68
2023/01/01 04:48:43;;;;;;;16.70;3.78;;;;;;;;;;5155604;27;20014;-68
2023/01/01 04:51:09;;;;;;;25.98;4.75;;;;;;;;;;5155398;27;20034;-68
2023/01/01 04:53:35;;;;;;;18.05;4.25;;;;;;;;;;5155648;27;20037;-68
2023/01/01 04:56:09;;;;;;;17.90;4.20;;;;;;;;;;5155481;27;20035;-68
2023/01/01 04:58:36;;;;;;;19.13;4.15;;;;;;;;;;5155304;27;20362;-68
2023/01/01 05:01:02;;;;;;;17.33;3.97;;;;;;;;;;5155170;27;20027;-68
2023/01/01 05:03:27;;;;;;;23.05;4.47;;;;;;;;;;5155102;27;20029;-68
2023/01/01 05:06:01;;;;;;;19.45;4.85;;;;;;;;;;5155295;27;20053;-68
2023/01/01 05:08:30;;;;;;;13.40;3.75;;;;;;;;;;5155243;27;20034;-68
2023/01/01 05:11:04;;;;;;;19.85;4.07;;;;;;;;;;5155088;27;20023;-67
2023/01/01 05:13:29;;;;;;;18.13;4.03;;;;;;;;;;5155141;27;20126;-68
2023/01/01 05:15:55;;;;;;;15.52;4.05;;;;;;;;;;5155051;27;20435;-69
2023/01/01 05:18:20;;;;;;;20.65;4.10;;;;;;;;;;5153455;27;20427;-68
2023/01/01 05:20:46;;;;;;;17.80;4.47;;;;;;;;;;5154371;27;20110;-68
2023/01/01 05:23:11;;;;;;;16.73;4.30;;;;;;;;;;5153559;27;20058;-68
2023/01/01 05:25:37;;;;;;;24.10;4.72;;;;;;;;;;5154966;27;20466;-67
2023/01/01 05:28:02;;;;;;;16.80;4.60;;;;;;;;;;5154850;27;20030;-67
2023/01/01 05:30:27;;;;;;;14.80;3.90;;;;;;;;;;5154696;27;20106;-68
2023/01/01 05:32:53;;;;;;;19.20;4.47;;;;;;;;;;5154576;27;20059;-69
2023/01/01 05:35:18;;;;;;;20.60;4.43;;;;;;;;;;5154741;27;20026;-68
2023/01/01 05:37:44;;;;;;;16.92;3.88;;;;;;;;;;5154503;27;20014;-67
2023/01/01 05:40:10;;;;;;;16.27;4.28;;;;;;;;;;5154406;27;20448;-67
2023/01/01 05:42:35;;;;;;;24.45;4.63;;;;;;;;;;5153027;27;20570;-67
2023/01/01 05:45:01;;;;;;;23.80;4.25;;;;;;;;;;5154390;27;20126;-67
2023/01/01 05:47:27;;;;;;;17.83;4.70;;;;;;;;;;5154499;27;20031;-66
2023/01/01 05:49:53;;;;;;;17.63;4.28;;;;;;;;;;5154347;27;20034;-68
2023/01/01 05:52:18;;;;;;;21.27;5.07;;;;;;;;;;5154191;27;20428;-68
2023/01/01 05:54:43;;;;;;;23.05;4.78;;;;;;;;;;5154411;27;20098;-69
2023/01/01 05:57:09;;;;;;;22.92;4.88;;;;;;;;;;5154176;27;20027;-69
2023/01/01 05:59:34;;;;;;;17.38;4.32;;;;;;;;;;5153955;27;20027;-68
2023/01/01 06:01:59;;;;;;;22.67;4.30;;;;;;;;;;5153908;27;20482;-68
2023/01/01 06:04:25;;;;;;;16.48;4.05;;;;;;;;;;5154105;27;20031;-68
2023/01/01 06:06:50;;;;;;;17.42;4.07;;;;;;;;;;5154043;27;20022;-68
2023/01/01 06:09:15;;;;;;;19.77;3.92;;;;;;;;;;5154311;27;20022;-67
2023/01/01 06:11:41;;;;;;;15.10;4.03;;;;;;;;;;5153966;27;20371;-67
2023/01/01 06:14:06;;;;;;;17.10;3.80;;;;;;;;;;5154047;27;20019;-68
2023/01/01 06:16:32;;;;;;;19.45;3.80;;;;;;;;;;5154092;27;20129;-68
2023/01/01 06:18:58;;;;;;;18.95;3.60;;;;;;;;;;5153448;27;20517;-68
2023/01/01 06:21:25;;;;;;;21.67;4.70;;;;;;;;;;5153587;27;20026;-68
2023/01/01 06:23:51;;;;;;;21.05;4.60;;;;;;;;;;5153805;27;20019;-68
2023/01/01 06:26:22;;;;;;;24.25;4.10;;;;;;;;;;5153833;27;20431;-67
2023/01/01 06:28:48;;;;;;;18.83;3.50;;;;;;;;;;5152558;27;20019;-68
2023/01/01 06:31:16;;;;;;;20.83;3.80;;;;;;;;;;5153703;27;20458;-69
2023/01/01 06:33:41;;;;;;;21.40;3.80;;;;;;;;;;5152778;27;20539;-70
2023/01/01 06:36:10;;;;;;;16.65;4.05;;;;;;;;;;5153426;27;20023;-68
2023/01/01 06:38:39;;;;;;;21.58;4.03;;;;;;;;;;5153327;27;20025;-68
2023/01/01 06:41:07;;;;;;;17.73;4.03;;;;;;;;;;5153357;27;20018;-68
2023/01/01 06:43:34;;;;;;;18.45;4.45;;;;;;;;;;5152849;27;20102;-67
2023/01/01 06:46:23;;;;;;;16.48;3.72;;;;;;;;;;5153413;27;20033;-68
2023/01/01 06:48:52;;;;;;;20.90;3.92;;;;;;;;;;5153353;27;20027;-69
2023/01/01 06:51:20;;;;;;;20.08;3.72;;;;;;;;;;5153185;27;20486;-68
2023/01/01 06:53:47;;;;;;;19.33;4.32;;;;;;;;;;5152978;27;20015;-67
2023/01/01 06:56:12;;;;;;;20.27;3.60;;;;;;;;;;5153165;27;20018;-67
2023/01/01 06:58:38;;;;;;;18.08;3.35;;;;;;;;;;5153053;27;20025;-70
2023/01/01 07:01:14;;;;;;;17.55;3.47;;;;;;;;;;5152813;27;20015;-68
2023/01/01 07:03:40;;;;;;;16.55;3.80;;;;;;;;;;5152702;27;20022;-68
2023/01/01 07:06:07;;;;;;;15.00;3.63;;;;;;;;;;5152934;27;20030;-67
2023/01/01 07:08:32;;;;;;;17.17;3.70;;;;;;;;;;5153126;27;20665;-67
2023/01/01 07:10:58;;;;;;;18.13;4.07;;;;;;;;;;5153022;27;20034;-68
2023/01/01 07:13:24;;;;;;;17.95;3.72;;;;;;;;;;5152540;27;20037;-68
2023/01/01 07:15:49;;;;;;;17.40;4.00;;;;;;;;;;5152794;27;20490;-70
2023/01/01 07:18:14;;;;;;;20.85;3.90;;;;;;;;;;5152464;27;20026;-68
2023/01/01 07:20:40;;;;;;;17.05;3.67;;;;;;;;;;5152526;27;20050;-68
2023/01/01 07:23:05;;;;;;;15.45;3.80;;;;;;;;;;5152365;27;20035;-69
2023/01/01 07:25:31;;;;;;;18.15;3.55;;;;;;;;;;5152679;27;20046;-68
2023/01/01 07:27:56;;;;;;;18.08;4.15;;;;;;;;;;5152747;27;20027;-68
2023/01/01 07:30:21;;;;;;;21.42;4.10;;;;;;;;;;5152544;27;20402;-69
2023/01/01 07:32:53;;;;;;;18.50;3.50;;;;;;;;;;5152236;27;20031;-67
2023/01/01 07:35:19;;;;;;;21.13;4.20;;;;;;;;;;5152402;27;20027;-67
2023/01/01 07:37:44;;;;;;;15.15;3.80;;;;;;;;;;5152211;27;20038;-68
2023/01/01 07:40:10;;;;;;;20.48;3.75;;;;;;;;;;5152686;27;20042;-74
2023/01/01 07:42:35;;;;;;;21.70;4.18;;;;;;;;;;5151950;27;20068;-71
2023/01/01 07:45:01;;;;;;;24.67;4.20;;;;;;;;;;5151382;27;20055;-71
2023/01/01 07:47:26;;;;;;;21.92;3.83;;;;;;;;;;5152473;27;20038;-69
2023/01/01 07:49:54;;;;;;;21.08;3.92;;;;;;;;;;5152221;27;20015;-72
2023/01/01 07:52:20;;;;;;;18.08;4.40;;;;;;;;;;5152207;27;20518;-76
2023/01/01 07:54:45;;;;;;;13.07;4.13;;;;;;;;;;5152119;27;20156;-73
2023/01/01 07:57:11;;;;;;;14.75;4.10;;;;;;;;;;5151871;27;20499;-68
2023/01/01 07:59:36;;;;;;;23.20;3.83;;;;;;;;;;5152127;27;20050;-74
2023/01/01 08:02:02;;;;;;;13.35;3.45;;;;;;;;;;5151876;27;20025;-74
2023/01/01 08:04:28;;;;;;;24.45;4.10;;;;;;;;;;5151905;27;20037;-73
2023/01/01 08:06:54;;;;;;;15.88;3.75;;;;;;;;;;5152300;27;20469;-72
2023/01/01 08:09:19;;;;;;;16.48;3.95;;;;;;;;;;5152100;27;20014;-74
2023/01/01 08:11:44;;;;;;;21.63;4.03;;;;;;;;;;5151930;27;20118;-73
2023/01/01 08:14:11;;;;;;;18.67;3.80;;;;;;;;;;5151756;27;20031;-72
2023/01/01 08:16:36;;;;;;;20.38;3.97;;;;;;;;;;5151972;27;20037;-68
2023/01/01 08:19:01;;;;;;;18.80;3.67;;;;;;;;;;5151718;27;20023;-69
2023/01/01 08:21:27;;;;;;;25.35;4.20;;;;;;;;;;5151712;27;20054;-68
2023/01/01 08:23:52;;;;;;;20.65;3.88;;;;;;;;;;5151799;27;20071;-68
2023/01/01 08:26:27;;;;;;;19.27;4.03;;;;;;;;;;5151864;27;20030;-67
2023/01/01 08:28:52;;;;;;;16.98;4.03;;;;;;;;;;5151955;27;20051;-69
2023/01/01 08:31:17;;;;;;;21.38;3.72;;;;;;;;;;5151778;27;20022;-75
2023/01/01 08:33:43;;;;;;;19.00;3.88;;;;;;;;;;5151344;27;20023;-72
2023/01/01 08:36:11;;;;;;;19.33;3.63;;;;;;;;;;5151778;27;20026;-69
2023/01/01 08:38:37;;;;;;;16.63;3.50;;;;;;;;;;5151604;27;20054;-69
2023/01/01 08:41:02;;;;;;;14.48;3.78;;;;;;;;;;5151611;27;20574;-72
2023/01/01 08:43:27;;;;;;;16.05;3.60;;;;;;;;;;5151280;27;20043;-71
2023/01/01 08:45:53;;;;;;;18.02;4.22;;;;;;;;;;5151688;27;20030;-71
2023/01/01 08:48:18;;;;;;;26.70;4.30;;;;;;;;;;5151330;27;20022;-69
2023/01/01 08:50:44;;;;;;;19.55;3.90;;;;;;;;;;5151646;27;20030;-75
2023/01/01 08:53:09;;;;;;;16.50;4.00;;;;;;;;;;5151488;27;20105;-72
2023/01/01 08:55:34;;;;;;;23.73;3.88;;;;;;;;;;5151822;27;20018;-70
2023/01/01 08:58:00;;;;;;;18.75;4.47;;;;;;;;;;5155452;27;20046;-73
2023/01/01 09:00:25;;;;;;;19.63;4.05;;;;;;;;;;5155288;27;20083;-73
2023/01/01 09:02:51;;;;;;;15.75;3.83;;;;;;;;;;5155141;27;20530;-74
2023/01/01 09:05:16;;;;;;;22.60;4.20;;;;;;;;;;5155219;27;20027;-72
2023/01/01 09:07:41;;;;;;;14.82;3.45;;;;;;;;;;5155350;27;20042;-72
2023/01/01 09:10:07;;;;;;;17.50;3.75;;;;;;;;;;5155293;27;20031;-73
2023/01/01 09:12:33;;;;;;;19.60;3.92;;;;;;;;;;5154969;27;20050;-75
2023/01/01 09:14:58;;;;;;;21.95;3.85;;;;;;;;;;5155126;27;20031;-69
2023/01/01 09:17:24;;;;;;;17.17;3.28;;;;;;;;;;5155168;27;20034;-72
2023/01/01 09:19:49;;;;;;;20.52;3.80;;;;;;;;;;5154855;27;20049;-75
2023/01/01 09:22:14;;;;;;;14.38;3.58;;;;;;;;;;5155071;27;20034;-73
2023/01/01 09:24:40;;;;;;;17.35;3.63;;;;;;;;;;5154726;27;20030;-74
2023/01/01 09:27:05;;;;;;;20.63;3.95;;;;;;;;;;5154922;27;20378;-73
2023/01/01 09:29:31;;;;;;;14.25;3.63;;;;;;;;;;5154813;27;20107;-75
2023/01/01 09:31:56;;;;;;;20.73;4.00;;;;;;;;;;5154822;27;20050;-71
2023/01/01 09:34:21;;;;;;;15.77;3.50;;;;;;;;;;5154119;27;20103;-74
2023/01/01 09:36:47;;;;;;;15.93;3.53;;;;;;;;;;5154489;27;20033;-73
2023/01/01 09:39:16;;;;;;;16.80;3.58;;;;;;;;;;5154425;27;20015;-70
2023/01/01 09:42:04;;;;;;;17.48;3.90;;;;;;;;;;5153173;27;20027;-70
2023/01/01 09:44:32;;;;;;;17.50;3.88;;;;;;;;;;5154096;27;20049;-74
2023/01/01 09:47:01;;;;;;;19.20;3.50;;;;;;;;;;5154697;27;20034;-69
2023/01/01 09:49:36;;;;;;;14.02;3.72;;;;;;;;;;5154314;27;20099;-73
2023/01/01 09:52:04;;;;;;;17.13;3.67;;;;;;;;;;5154530;27;20033;-73
2023/01/01 09:54:38;;;;;;;19.27;3.65;;;;;;;;;;5153895;27;20027;-74
2023/01/01 09:57:09;;;;;;;16.88;3.53;;;;;;;;;;5154276;27;20031;-72
2023/01/01 09:59:34;;;;;;;;;;;;;;;;;;5154670;27;20023;-76
2023/01/01 10:02:38;;;;;;;13.55;3.45;;;;;;;;;;5154273;27;19911;-75
2023/01/01 10:05:30;;;;;;;16.30;3.10;;;;;;;;;;5154112;27;20023;-73
2023/01/01 10:08:18;;;;;;;16.23;3.00;;;;;;;;;;5153678;27;20072;-74
2023/01/01 10:10:55;;;;;;;13.75;3.00;;;;;;;;;;5154167;27;20427;-72
2023/01/01 10:13:42;;;;;;;14.65;2.83;;;;;;;;;;5153907;27;20489;-76
2023/01/01 10:16:31;;;;;;;17.85;3.33;;;;;;;;;;5153847;27;20031;-75
2023/01/01 10:19:06;;;;;;;14.82;2.65;;;;;;;;;;5153526;27;20027;-69
2023/01/01 10:21:35;;;;;;;18.38;3.10;;;;;;;;;;5153750;27;20109;-69
2023/01/01 10:24:11;;;;;;;14.32;3.50;;;;;;;;;;5153728;27;20027;-70
2023/01/01 10:26:38;;;;;;;13.43;3.10;;;;;;;;;;5153839;27;20025;-69
2023/01/01 10:29:45;;;;;;;18.35;3.20;;;;;;;;;;5153788;27;20026;-70
2023/01/01 10:32:18;;;;;;;11.38;2.80;;;;;;;;;;5122077;27;20038;-70
2023/01/01 10:34:43;;;;;;;13.88;3.17;;;;;;;;;;5153327;27;20578;-73
2023/01/01 10:37:10;;;;;;;16.17;2.80;;;;;;;;;;5153599;27;20605;-71
2023/01/01 10:39:35;;;;;;;16.92;3.25;;;;;;;;;;5153345;27;20031;-71
2023/01/01 10:42:02;;;;;;;14.38;3.50;;;;;;;;;;5153537;27;20037;-71
2023/01/01 10:44:30;;;;;;;18.42;3.38;;;;;;;;;;5153033;27;20047;-74
2023/01/01 10:46:58;;;;;;;12.88;2.97;;;;;;;;;;5153475;27;20050;-72
2023/01/01 10:49:23;;;;;;;16.50;2.90;;;;;;;;;;5153321;27;20057;-70
2023/01/01 10:51:51;;;;;;;14.70;2.75;;;;;;;;;;5153174;27;20062;-71
2023/01/01 10:54:32;;;;;;;12.63;2.90;;;;;;;;;;5151593;27;20082;-72
2023/01/01 10:56:57;;;;;;;;;;;;;;;;;;5153433;27;20025;-74
2023/01/01 10:59:40;;;;;;;14.05;3.05;;;;;;;;;;5153138;27;19911;-74
2023/01/01 11:02:21;;;;;;;11.63;2.90;;;;;;;;;;5151787;27;20026;-75
2023/01/01 11:04:49;;;;;;;13.63;2.92;;;;;;;;;;5152706;27;20027;-75
2023/01/01 11:07:35;;;;;;;10.30;2.95;;;;;;;;;;5153102;27;20063;-74
2023/01/01 11:10:03;;;;;;;12.95;3.08;;;;;;;;;;5152905;27;20122;-74
2023/01/01 11:12:33;;;;;;;13.05;3.63;;;;;;;;;;5151431;27;20083;-74
2023/01/01 11:14:59;;;;;;;14.23;3.20;;;;;;;;;;5152498;27;20027;-74
2023/01/01 11:17:31;;;;;;;11.90;2.72;;;;;;;;;;5152575;27;20039;-75
2023/01/01 11:19:57;;;;;;;13.02;2.72;;;;;;;;;;5152571;27;20455;-72
2023/01/01 11:22:41;;;;;;;10.48;2.80;;;;;;;;;;5152851;27;20021;-74
2023/01/01 11:25:20;;;;;;;13.73;2.90;;;;;;;;;;5152681;27;20018;-73
2023/01/01 11:27:46;;;;;;;13.70;3.05;;;;;;;;;;5152668;27;20027;-75
2023/01/01 11:30:19;;;;;;;18.15;3.22;;;;;;;;;;5152401;27;20546;-73
2023/01/01 11:32:45;;;;;;;12.15;3.00;;;;;;;;;;5152414;27;20615;-74
2023/01/01 11:35:19;;;;;;;13.48;3.25;;;;;;;;;;5151838;27;20033;-72
2023/01/01 11:37:45;;;;;;;12.32;2.97;;;;;;;;;;5152323;27;20026;-72
2023/01/01 11:40:34;;;;;;;14.27;3.20;;;;;;;;;;5152238;27;20098;-74
2023/01/01 11:43:02;;;;;;;13.82;2.75;;;;;;;;;;5152202;27;20030;-73
2023/01/01 11:45:33;;;;;;;13.50;3.50;;;;;;;;;;5152114;27;20700;-73
2023/01/01 11:48:02;;;;;;;14.25;3.53;;;;;;;;;;5152205;27;20497;-74
2023/01/01 11:50:37;;;;;;;11.02;3.08;;;;;;;;;;5152205;27;20618;-75
2023/01/01 11:53:20;;;;;;;13.48;2.97;;;;;;;;;;5152124;27;20067;-75
2023/01/01 11:55:56;;;;;;;11.35;2.85;;;;;;;;;;5156494;27;20474;-74
2023/01/01 11:58:47;;;;;;;14.40;3.05;;;;;;;;;;5153529;27;20114;-72
2023/01/01 12:01:35;;;;;;;;;;;;;;;;;;5152511;27;20058;-75
2023/01/01 12:04:14;;;;;;;11.38;3.13;;;;;;;;;;5151916;27;19944;-75
2023/01/01 12:06:51;;;;;;;9.48;2.85;;;;;;;;;;5152046;27;20034;-74
2023/01/01 12:09:35;;;;;;;14.05;3.17;;;;;;;;;;5152002;27;20019;-75
2023/01/01 12:12:06;;;;;;;12.32;2.95;;;;;;;;;;5151951;27;20030;-74
2023/01/01 12:14:51;;;;;;;13.35;2.70;;;;;;;;;;5151727;27;20026;-75
2023/01/01 12:17:23;;;;;;;16.63;3.10;;;;;;;;;;5151783;27;20029;-72
2023/01/01 12:19:51;;;;;;;12.95;3.17;;;;;;;;;;5151763;27;20079;-72
2023/01/01 12:22:18;;;;;;;15.88;3.40;;;;;;;;;;5152030;27;20034;-73
2023/01/01 12:24:45;;;;;;;14.75;3.17;;;;;;;;;;5151752;27;20053;-73
2023/01/01 12:27:32;;;;;;;12.10;2.95;;;;;;;;;;5152136;27;20486;-74
2023/01/01 12:30:00;;;;;;;13.07;3.40;;;;;;;;;;5151730;27;20023;-73
2023/01/01 12:32:37;;;;;;;16.75;3.60;;;;;;;;;;5155475;27;20026;-74
2023/01/01 12:35:39;;;;;;;17.77;3.50;;;;;;;;;;5155423;27;20019;-74
2023/01/01 12:38:21;;;;;;;13.10;3.05;;;;;;;;;;5155904;27;20103;-73
2023/01/01 12:41:06;;;;;;;15.45;3.35;;;;;;;;;;5155904;27;20398;-75
2023/01/01 12:43:54;;;;;;;11.07;3.20;;;;;;;;;;5155666;27;20047;-72
2023/01/01 12:46:46;;;;;;;14.95;3.45;;;;;;;;;;5155782;27;20094;-75
2023/01/01 12:49:23;;;;;;;11.15;3.10;;;;;;;;;;5155594;27;20131;-75
2023/01/01 12:51:51;;;;;;;15.15;3.20;;;;;;;;;;5155494;27;20144;-75
2023/01/01 12:54:38;;;;;;;15.48;3.10;;;;;;;;;;5155115;27;20022;-75
2023/01/01 12:57:35;;;;;;;14.02;2.97;;;;;;;;;;5155227;27;20061;-76
2023/01/01 13:00:03;;;;;;;13.90;3.00;;;;;;;;;;5155559;27;20104;-74
2023/01/01 13:02:31;;;;;;;16.58;3.40;;;;;;;;;;5155321;27;20494;-75
2023/01/01 13:05:05;;;;;;;14.05;3.03;;;;;;;;;;5155102;27;20037;-74
2023/01/01 13:07:38;;;;;;;16.35;3.28;;;;;;;;;;5155235;27;20027;-76
2023/01/01 13:10:33;;;;;;;11.80;2.60;;;;;;;;;;5155165;27;20023;-76
2023/01/01 13:12:59;;;;;;;13.77;3.13;;;;;;;;;;5153272;27;20118;-74
2023/01/01 13:15:36;;;;;;;11.27;3.08;;;;;;;;;;5154747;27;20062;-74
2023/01/01 13:18:14;;;;;;;14.40;3.17;;;;;;;;;;5154715;27;20034;-73
2023/01/01 13:21:04;;;;;;;10.23;2.70;;;;;;;;;;5154976;27;20098;-75
2023/01/01 13:23:37;;;;;;;13.15;3.08;;;;;;;;;;5155140;27;20015;-74
2023/01/01 13:26:17;;;;;;;9.98;2.47;;;;;;;;;;5154839;27;20031;-76
2023/01/01 13:28:43;;;;;;;12.48;3.13;;;;;;;;;;5155093;27;20030;-75
2023/01/01 13:31:08;;;;;;;12.52;2.92;;;;;;;;;;5154833;27;20033;-75
2023/01/01 13:33:35;;;;;;;16.52;2.83;;;;;;;;;;5154618;27;20017;-75
2023/01/01 13:36:07;;;;;;;13.43;2.90;;;;;;;;;;5154311;27;20022;-69
2023/01/01 13:38:54;;;;;;;11.52;3.17;;;;;;;;;;5154613;27;20027;-73
2023/01/01 13:41:28;;;;;;;12.18;2.90;;;;;;;;;;5154615;27;20030;-75
2023/01/01 13:43:59;;;;;;;13.98;3.10;;;;;;;;;;5153479;27;20055;-73
2023/01/01 13:46:34;;;;;;;12.10;3.10;;;;;;;;;;5154368;27;20023;-75
2023/01/01 13:49:17;;;;;;;14.07;3.35;;;;;;;;;;5154480;27;20041;-75
2023/01/01 13:52:05;;;;;;;16.55;3.20;;;;;;;;;;5154319;27;20031;-75
2023/01/01 13:54:38;;;;;;;18.15;3.50;;;;;;;;;;5154150;27;20041;-72
2023/01/01 13:57:18;;;;;;;16.77;3.13;;;;;;;;;;5154294;27;20487;-69
2023/01/01 14:00:17;;;;;;;11.73;2.80;;;;;;;;;;5154259;27;20132;-70
2023/01/01 14:02:49;;;;;;;17.02;3.17;;;;;;;;;;5154351;27;20081;-75
2023/01/01 14:05:52;;;;;;;16.05;3.10;;;;;;;;;;5154005;27;20029;-72
2023/01/01 14:08:33;;;;;;;11.00;3.03;;;;;;;;;;5150952;27;20121;-69
2023/01/01 14:11:00;;;;;;;14.43;3.58;;;;;;;;;;5153802;27;20073;-75
2023/01/01 14:13:37;;;;;;;12.65;2.88;;;;;;;;;;5153979;27;20076;-73
2023/01/01 14:16:07;;;;;;;12.27;2.80;;;;;;;;;;5153667;27;20022;-75
2023/01/01 14:18:37;;;;;;;11.70;3.03;;;;;;;;;;5153760;27;20027;-75
2023/01/01 14:21:07;;;;;;;14.82;3.13;;;;;;;;;;5153963;27;20714;-75
2023/01/01 14:23:36;;;;;;;13.13;3.15;;;;;;;;;;5153989;27;20071;-74
2023/01/01 14:26:08;;;;;;;15.73;3.40;;;;;;;;;;5153802;27;20101;-72
2023/01/01 14:28:34;;;;;;;15.32;3.05;;;;;;;;;;5153756;27;20019;-75
2023/01/01 14:31:04;;;;;;;16.73;2.92;;;;;;;;;;5153536;27;20026;-69
2023/01/01 14:33:32;;;;;;;16.23;3.88;;;;;;;;;;5153369;27;20041;-75
2023/01/01 14:36:00;;;;;;;14.82;3.60;;;;;;;;;;5153077;27;20030;-75
2023/01/01 14:38:31;;;;;;;18.23;3.40;;;;;;;;;;5153503;27;20514;-75
2023/01/01 14:41:13;;;;;;;16.10;3.30;;;;;;;;;;5153714;27;20027;-75
2023/01/01 14:43:41;;;;;;;15.90;3.72;;;;;;;;;;5153162;27;20047;-76
2023/01/01 14:46:12;;;;;;;11.15;3.70;;;;;;;;;;5153338;27;20018;-76
2023/01/01 14:48:43;;;;;;;12.48;3.75;;;;;;;;;;5153305;27;20508;-75
2023/01/01 14:51:14;;;;;;;9.95;3.42;;;;;;;;;;5153140;27;20058;-74
2023/01/01 14:53:40;;;;;;;;;;;;;;;;;;5153218;27;20026;-75
2023/01/01 14:56:06;;;;;;;13.20;4.07;;;;;;;;;;5152876;27;20345;-76